sensor_id;sensor_type;location;lat;lon;timestamp;pressure;altitude;pressure_sealevel;temperature;humidity
15558;BME280;7880;50.110;9.372;2023-02-19T00:04:33;7.784723434224725;;;7.875;100.0
15558;BME280;7880;50.110;9.372;2023-02-19T00:09:35;7.804892012570053;;;7.875;100.0
15558;BME280;7880;50.110;9.372;2023-02-19T00:14:38;7.804892012570053;;;7.875;100.0
15558;BME280;7880;50.110;9.372;2023-02-19T00:19:42;7.804892012570053;;;7.875;100.0
15558;BME280;7880;50.110;9.372;2023-02-19T00:24:58;7.739344149973476;;;7.812;100.0
15558;BME280;7880;50.110;9.372;2023-02-19T00:29:57;7.749428433325375;;;7.812;100.0
15558;BME280;7880;50.110;9.372;2023-02-19T00:35:00;7.699007028207416;;;7.75;100.0
15558;BME280;7880;50.110;9.372;2023-02-19T00:40:05;7.668754199106479;;;7.687;100.0
15558;BME280;7880;50.110;9.372;2023-02-19T00:45:08;7.618332840554649;;;7.687;100.0
15558;BME280;7880;50.110;9.372;2023-02-19T00:50:13;7.618332840554649;;;7.687;100.0
15558;BME280;7880;50.110;9.372;2023-02-19T00:55:17;7.59312217219267;;;7.625;100.0
15558;BME280;7880;50.110;9.372;2023-02-19T01:00:28;7.618332840554649;;;7.625;100.0
15558;BME280;7880;50.110;9.372;2023-02-19T01:05:27;7.608248572336743;;;7.625;100.0
15558;BME280;7880;50.110;9.372;2023-02-19T01:10:31;7.608248572336743;;;7.625;100.0
15558;BME280;7880;50.110;9.372;2023-02-19T01:15:39;7.59816430528299;;;7.687;100.0
15558;BME280;7880;50.110;9.372;2023-02-19T01:20:38;7.603206438664347;;;7.687;100.0
15558;BME280;7880;50.110;9.372;2023-02-19T01:25:42;7.653627788485028;;;7.687;100.0
15558;BME280;7880;50.110;9.372;2023-02-19T01:30:46;7.643543516192585;;;7.75;100.0
15558;BME280;7880;50.110;9.372;2023-02-19T01:35:50;7.648585652193288;;;7.687;100.0
15558;BME280;7880;50.110;9.372;2023-02-19T01:40:57;7.643543516192585;;;7.75;100.0
15558;BME280;7880;50.110;9.372;2023-02-19T01:46:00;7.648585652193288;;;7.687;100.0
15558;BME280;7880;50.110;9.372;2023-02-19T01:51:07;7.668754199106479;;;7.75;100.0
15558;BME280;7880;50.110;9.372;2023-02-19T01:56:19;7.643543516192585;;;7.687;100.0
15558;BME280;7880;50.110;9.372;2023-02-19T02:01:18;7.618332840554649;;;7.687;100.0
15558;BME280;7880;50.110;9.372;2023-02-19T02:06:24;7.62337497510016;;;7.687;100.0
15558;BME280;7880;50.110;9.372;2023-02-19T02:11:29;7.628417109936708;;;7.687;100.0
15558;BME280;7880;50.110;9.372;2023-02-19T02:16:39;7.618332840554649;;;7.687;100.0
15558;BME280;7880;50.110;9.372;2023-02-19T02:21:54;7.5578272487095095;;;7.687;100.0
15558;BME280;7880;50.110;9.372;2023-02-19T02:26:49;7.522532339487225;;;7.625;100.0
15558;BME280;7880;50.110;9.372;2023-02-19T02:31:48;7.487237444525817;;;7.562;100.0
15558;BME280;7880;50.110;9.372;2023-02-19T02:36:50;7.502363826334476;;;7.562;100.0
15558;BME280;7880;50.110;9.372;2023-02-19T02:42:26;7.477153191441903;;;7.5;100.0
15558;BME280;7880;50.110;9.372;2023-02-19T02:47:43;7.482195317838341;;;7.5;100.0
15558;BME280;7880;50.110;9.372;2023-02-19T02:59:30;7.456984688766534;;;7.5;100.0
15558;BME280;7880;50.110;9.372;2023-02-19T03:04:36;7.426731943484628;;;7.437;100.0
15558;BME280;7880;50.110;9.372;2023-02-19T03:09:41;7.396479208680103;;;7.437;100.0
15558;BME280;7880;50.110;9.372;2023-02-19T03:21:40;7.436816190747777;;;7.437;100.0
15558;BME280;7880;50.110;9.372;2023-02-19T03:26:43;7.426731943484628;;;7.437;100.0
15558;BME280;7880;50.110;9.372;2023-02-19T03:31:46;7.396479208680103;;;7.437;100.0
15558;BME280;7880;50.110;9.372;2023-02-19T03:36:54;7.391437087231315;;;7.437;100.0
15558;BME280;7880;50.110;9.372;2023-02-19T03:41:59;7.411605574772693;;;7.437;100.0
15558;BME280;7880;50.110;9.372;2023-02-19T03:47:07;7.406563452450792;;;7.437;100.0
15558;BME280;7880;50.110;9.372;2023-02-19T03:52:12;7.426731943484628;;;7.5;100.0
15558;BME280;7880;50.110;9.372;2023-02-19T03:57:16;7.416647697385633;;;7.5;100.0
15558;BME280;7880;50.110;9.372;2023-02-19T04:02:18;7.426731943484628;;;7.437;100.0
15558;BME280;7880;50.110;9.372;2023-02-19T04:07:21;7.426731943484628;;;7.437;100.0
15558;BME280;7880;50.110;9.372;2023-02-19T04:12:25;7.396479208680103;;;7.437;100.0
15558;BME280;7880;50.110;9.372;2023-02-19T04:17:34;7.396479208680103;;;7.437;100.0
15558;BME280;7880;50.110;9.372;2023-02-19T04:22:33;7.406563452450792;;;7.437;100.0
15558;BME280;7880;50.110;9.372;2023-02-19T04:27:40;7.441858314815908;;;7.5;100.0
15558;BME280;7880;50.110;9.372;2023-02-19T04:32:43;7.421689820289612;;;7.437;100.0
15558;BME280;7880;50.110;9.372;2023-02-19T04:37:52;7.416647697385633;;;7.437;100.0
15558;BME280;7880;50.110;9.372;2023-02-19T04:42:56;7.436816190747777;;;7.5;100.0
15558;BME280;7880;50.110;9.372;2023-02-19T04:48:04;7.472111065336503;;;7.5;100.0
15558;BME280;7880;50.110;9.372;2023-02-19T04:53:15;7.421689820289612;;;7.437;100.0
15558;BME280;7880;50.110;9.372;2023-02-19T04:58:09;7.416647697385633;;;7.5;100.0
15558;BME280;7880;50.110;9.372;2023-02-19T05:03:17;7.426731943484628;;;7.437;100.0
15558;BME280;7880;50.110;9.372;2023-02-19T05:08:18;7.396479208680103;;;7.437;100.0
15558;BME280;7880;50.110;9.372;2023-02-19T05:13:26;7.391437087231315;;;7.437;100.0
15558;BME280;7880;50.110;9.372;2023-02-19T05:18:27;7.35614224523888;;;7.437;100.0
15558;BME280;7880;50.110;9.372;2023-02-19T05:23:37;7.330931652546861;;;7.375;100.0
15558;BME280;7880;50.110;9.372;2023-02-19T05:28:39;7.310763183631934;;;7.375;100.0
15558;BME280;7880;50.110;9.372;2023-02-19T05:33:43;7.295636835001642;;;7.375;100.0
15558;BME280;7880;50.110;9.372;2023-02-19T05:38:51;7.3359737705031876;;;7.375;100.0
15558;BME280;7880;50.110;9.372;2023-02-19T05:43:52;7.315805300424108;;;7.375;100.0
15558;BME280;7880;50.110;9.372;2023-02-19T05:48:56;7.320847417507321;;;7.375;100.0
15558;BME280;7880;50.110;9.372;2023-02-19T05:53:59;7.341015888750553;;;7.375;100.0
15558;BME280;7880;50.110;9.372;2023-02-19T05:59:05;7.351100126118399;;;7.375;100.0
15558;BME280;7880;50.110;9.372;2023-02-19T06:04:07;7.3359737705031876;;;7.375;100.0
15558;BME280;7880;50.110;9.372;2023-02-19T06:09:10;7.346058007288957;;;7.375;100.0
15558;BME280;7880;50.110;9.372;2023-02-19T06:14:14;7.346058007288957;;;7.375;100.0
15558;BME280;7880;50.110;9.372;2023-02-19T06:19:17;7.325889534881571;;;7.375;100.0
15558;BME280;7880;50.110;9.372;2023-02-19T06:24:21;7.3359737705031876;;;7.375;100.0
15558;BME280;7880;50.110;9.372;2023-02-19T06:29:26;7.325889534881571;;;7.375;100.0
15558;BME280;7880;50.110;9.372;2023-02-19T06:34:34;7.310763183631934;;;7.375;100.0
15558;BME280;7880;50.110;9.372;2023-02-19T06:39:43;7.381352845206857;;;7.375;100.0
15558;BME280;7880;50.110;9.372;2023-02-19T06:44:39;7.3359737705031876;;;7.375;100.0
15558;BME280;7880;50.110;9.372;2023-02-19T06:49:43;7.3359737705031876;;;7.375;100.0
15558;BME280;7880;50.110;9.372;2023-02-19T06:54:49;7.341015888750553;;;7.375;100.0
15558;BME280;7880;50.110;9.372;2023-02-19T07:00:11;7.3611843646503985;;;7.375;100.0
15558;BME280;7880;50.110;9.372;2023-02-19T07:04:58;7.346058007288957;;;7.375;100.0
15558;BME280;7880;50.110;9.372;2023-02-19T07:10:08;7.351100126118399;;;7.375;100.0
15558;BME280;7880;50.110;9.372;2023-02-19T07:15:08;7.325889534881571;;;7.375;100.0
15558;BME280;7880;50.110;9.372;2023-02-19T07:20:13;7.330931652546861;;;7.375;100.0
15558;BME280;7880;50.110;9.372;2023-02-19T07:25:17;7.310763183631934;;;7.375;100.0
15558;BME280;7880;50.110;9.372;2023-02-19T07:30:21;7.3359737705031876;;;7.375;100.0
15558;BME280;7880;50.110;9.372;2023-02-19T07:35:24;7.351100126118399;;;7.437;100.0
15558;BME280;7880;50.110;9.372;2023-02-19T07:40:34;7.315805300424108;;;7.375;100.0
15558;BME280;7880;50.110;9.372;2023-02-19T07:45:36;7.366226484352955;;;7.375;100.0
15558;BME280;7880;50.110;9.372;2023-02-19T07:50:38;7.315805300424108;;;7.375;100.0
15558;BME280;7880;50.110;9.372;2023-02-19T07:55:46;7.300678950920701;;;7.375;100.0
15558;BME280;7880;50.110;9.372;2023-02-19T08:00:48;7.2855526040366385;;;7.312;100.0
15558;BME280;7880;50.110;9.372;2023-02-19T08:05:46;7.275468374235788;;;7.312;100.0
15558;BME280;7880;50.110;9.372;2023-02-19T08:17:46;7.2200051311403515;;;7.25;100.0
15558;BME280;7880;50.110;9.372;2023-02-19T08:22:46;7.270426259771921;;;7.312;100.0
15558;BME280;7880;50.110;9.372;2023-02-19T08:27:53;7.214963019877905;;;7.25;100.0
15558;BME280;7880;50.110;9.372;2023-02-19T08:32:56;7.225047242693836;;;7.25;100.0
15558;BME280;7880;50.110;9.372;2023-02-19T08:38:04;7.275468374235788;;;7.312;100.0
15558;BME280;7880;50.110;9.372;2023-02-19T08:43:05;7.275468374235788;;;7.312;100.0
15558;BME280;7880;50.110;9.372;2023-02-19T08:48:08;7.2200051311403515;;;7.25;100.0
15558;BME280;7880;50.110;9.372;2023-02-19T08:53:12;7.230089354538359;;;7.25;100.0
15558;BME280;7880;50.110;9.372;2023-02-19T08:58:18;7.225047242693836;;;7.25;100.0
15558;BME280;7880;50.110;9.372;2023-02-19T09:03:38;7.230089354538359;;;7.25;100.0
15558;BME280;7880;50.110;9.372;2023-02-19T09:08:34;7.189752467931248;;;7.25;100.0
15558;BME280;7880;50.110;9.372;2023-02-19T09:13:32;7.214963019877905;;;7.25;100.0
15558;BME280;7880;50.110;9.372;2023-02-19T09:18:35;7.214963019877905;;;7.25;100.0
15558;BME280;7880;50.110;9.372;2023-02-19T09:23:40;7.23513146667392;;;7.25;100.0
15558;BME280;7880;50.110;9.372;2023-02-19T09:28:45;7.245215691818157;;;7.312;100.0
15558;BME280;7880;50.110;9.372;2023-02-19T09:33:50;7.204878798226128;;;7.25;100.0
15558;BME280;7880;50.110;9.372;2023-02-19T09:38:56;7.280510488990695;;;7.312;100.0
15558;BME280;7880;50.110;9.372;2023-02-19T09:44:12;7.225047242693836;;;7.25;100.0
15558;BME280;7880;50.110;9.372;2023-02-19T09:49:13;7.199836687836796;;;7.25;100.0
15558;BME280;7880;50.110;9.372;2023-02-19T09:54:16;7.194794577738503;;;7.25;100.0
15558;BME280;7880;50.110;9.372;2023-02-19T09:59:19;7.189752467931248;;;7.25;100.0
15558;BME280;7880;50.110;9.372;2023-02-19T10:04:21;7.194794577738503;;;7.25;100.0
15558;BME280;7880;50.110;9.372;2023-02-19T10:09:29;7.245215691818157;;;7.25;100.0
15558;BME280;7880;50.110;9.372;2023-02-19T10:14:35;7.295636835001642;;;7.312;100.0
15558;BME280;7880;50.110;9.372;2023-02-19T10:19:37;7.280510488990695;;;7.312;100.0
15558;BME280;7880;50.110;9.372;2023-02-19T10:24:51;7.3611843646503985;;;7.375;100.0
15558;BME280;7880;50.110;9.372;2023-02-19T10:29:48;7.3763107246311845;;;7.375;100.0
15558;BME280;7880;50.110;9.372;2023-02-19T10:35:13;7.3763107246311845;;;7.437;100.0
15558;BME280;7880;50.110;9.372;2023-02-19T10:39:59;7.401521330419928;;;7.437;100.0
15558;BME280;7880;50.110;9.372;2023-02-19T10:45:02;7.416647697385633;;;7.437;100.0
15558;BME280;7880;50.110;9.372;2023-02-19T10:50:20;7.396479208680103;;;7.437;100.0
15558;BME280;7880;50.110;9.372;2023-02-19T10:55:19;7.426731943484628;;;7.5;100.0
15558;BME280;7880;50.110;9.372;2023-02-19T11:01:10;7.487237444525817;;;7.5;100.0
15558;BME280;7880;50.110;9.372;2023-02-19T11:06:00;7.522532339487225;;;7.562;100.0
15558;BME280;7880;50.110;9.372;2023-02-19T11:11:03;7.59816430528299;;;7.625;100.0
15558;BME280;7880;50.110;9.372;2023-02-19T11:16:07;7.7242177271284165;;;7.75;100.0
15558;BME280;7880;50.110;9.372;2023-02-19T11:21:24;7.729259867785731;;;7.75;100.0
15558;BME280;7880;50.110;9.372;2023-02-19T11:26:21;7.76959700352163;;;7.812;100.0
15558;BME280;7880;50.110;9.372;2023-02-19T11:31:32;7.804892012570053;;;7.875;100.0
15558;BME280;7880;50.110;9.372;2023-02-19T11:36:30;7.688922750676284;;;7.75;100.0
15558;BME280;7880;50.110;9.372;2023-02-19T11:41:52;7.567911511106649;;;7.625;100.0
15558;BME280;7880;50.110;9.372;2023-02-19T11:46:49;7.608248572336743;;;7.625;100.0
15558;BME280;7880;50.110;9.372;2023-02-19T11:51:52;7.608248572336743;;;7.625;100.0
15558;BME280;7880;50.110;9.372;2023-02-19T11:56:49;7.572953642741777;;;7.625;100.0
15558;BME280;7880;50.110;9.372;2023-02-19T12:02:00;7.608248572336743;;;7.625;100.0
15558;BME280;7880;50.110;9.372;2023-02-19T12:07:00;7.658669925067807;;;7.687;100.0
15558;BME280;7880;50.110;9.372;2023-02-19T12:12:10;7.663712061941624;;;7.75;100.0
15558;BME280;7880;50.110;9.372;2023-02-19T12:17:09;7.668754199106479;;;7.75;100.0
15558;BME280;7880;50.110;9.372;2023-02-19T12:22:27;7.739344149973476;;;7.75;100.0
15558;BME280;7880;50.110;9.372;2023-02-19T12:27:18;7.835144888819196;;;7.875;100.0
15558;BME280;7880;50.110;9.372;2023-02-19T12:32:24;7.860355627030367;;;7.937;100.0
15558;BME280;7880;50.110;9.372;2023-02-19T12:37:26;7.825060595571995;;;7.875;100.0
15558;BME280;7880;50.110;9.372;2023-02-19T12:42:43;7.925903580430895;;;8.0;100.0
15558;BME280;7880;50.110;9.372;2023-02-19T12:47:31;8.041873156937072;;;8.125;100.0
15558;BME280;7880;50.110;9.372;2023-02-19T12:52:38;8.077168275997973;;;8.125;100.0
15558;BME280;7880;50.110;9.372;2023-02-19T12:57:44;8.117505572387017;;;8.25;100.0
15558;BME280;7880;50.110;9.372;2023-02-19T13:02:44;8.056999634788372;;;8.187;100.0
15558;BME280;7880;50.110;9.372;2023-02-19T13:07:54;8.021704523876542;;;8.125;100.0
15558;BME280;7880;50.110;9.372;2023-02-19T13:11:57;8.021704523876542;;;8.062;100.0
15558;BME280;7880;50.110;9.372;2023-02-19T13:17:06;8.011620209092507;;;8.062;100.0
15558;BME280;7880;50.110;9.372;2023-02-19T13:29:02;8.132632063335041;;;8.187;100.0
15558;BME280;7880;50.110;9.372;2023-02-19T13:34:07;8.228433233499526;;;8.25;100.0
15558;BME280;7880;50.110;9.372;2023-02-19T13:39:03;8.288939289841801;;;8.375;100.0
15558;BME280;7880;50.110;9.372;2023-02-19T13:44:16;8.253644085215637;;;8.312;100.0
15558;BME280;7880;50.110;9.372;2023-02-19T13:49:38;8.147758556902408;;;8.25;100.0
15558;BME280;7880;50.110;9.372;2023-02-19T13:54:22;8.062041794654215;;;8.187;100.0
15558;BME280;7880;50.110;9.372;2023-02-19T13:59:35;8.006578052137048;;;8.062;100.0
15558;BME280;7880;50.110;9.372;2023-02-19T14:04:42;7.971282961597899;;;8.0;100.0
15558;BME280;7880;50.110;9.372;2023-02-19T14:09:44;7.941030038200552;;;8.0;100.0
15558;BME280;7880;50.110;9.372;2023-02-19T14:14:39;7.910777125280584;;;7.937;100.0
15558;BME280;7880;50.110;9.372;2023-02-19T14:19:47;7.941030038200552;;;8.0;100.0
15558;BME280;7880;50.110;9.372;2023-02-19T14:24:51;7.915819276706316;;;8.0;100.0
15558;BME280;7880;50.110;9.372;2023-02-19T14:29:54;7.96119865263463;;;8.0;100.0
15558;BME280;7880;50.110;9.372;2023-02-19T14:34:57;7.951114344835514;;;8.0;100.0
15558;BME280;7880;50.110;9.372;2023-02-19T14:40:02;7.946072191372513;;;8.0;100.0
15558;BME280;7880;50.110;9.372;2023-02-19T14:45:05;7.930945732729742;;;8.0;100.0
15558;BME280;7880;50.110;9.372;2023-02-19T14:50:24;7.996493739099241;;;8.062;100.0
15558;BME280;7880;50.110;9.372;2023-02-19T14:55:21;7.996493739099241;;;8.062;100.0
15558;BME280;7880;50.110;9.372;2023-02-19T15:00:24;8.001535895472625;;;8.062;100.0
15558;BME280;7880;50.110;9.372;2023-02-19T15:05:26;8.006578052137048;;;8.125;100.0
15558;BME280;7880;50.110;9.372;2023-02-19T15:10:31;8.001535895472625;;;8.062;100.0
15558;BME280;7880;50.110;9.372;2023-02-19T15:15:38;8.011620209092507;;;8.062;100.0
15558;BME280;7880;50.110;9.372;2023-02-19T15:20:41;8.006578052137048;;;8.125;100.0
15558;BME280;7880;50.110;9.372;2023-02-19T15:25:49;8.021704523876542;;;8.125;100.0
15558;BME280;7880;50.110;9.372;2023-02-19T15:30:48;8.031788839824731;;;8.125;100.0
15558;BME280;7880;50.110;9.372;2023-02-19T15:36:03;8.031788839824731;;;8.125;100.0
15558;BME280;7880;50.110;9.372;2023-02-19T15:41:04;8.011620209092507;;;8.125;100.0
15558;BME280;7880;50.110;9.372;2023-02-19T15:46:16;7.996493739099241;;;8.062;100.0
15558;BME280;7880;50.110;9.372;2023-02-19T15:51:20;8.011620209092507;;;8.125;100.0
15558;BME280;7880;50.110;9.372;2023-02-19T15:56:19;8.006578052137048;;;8.125;100.0
15558;BME280;7880;50.110;9.372;2023-02-19T16:01:24;7.956156498589553;;;8.062;100.0
15558;BME280;7880;50.110;9.372;2023-02-19T16:06:27;7.956156498589553;;;8.062;100.0
15558;BME280;7880;50.110;9.372;2023-02-19T16:11:34;7.941030038200552;;;8.062;100.0
15558;BME280;7880;50.110;9.372;2023-02-19T16:16:35;7.920861428423086;;;8.0;100.0
15558;BME280;7880;50.110;9.372;2023-02-19T16:21:37;7.890608522488037;;;8.0;100.0
15558;BME280;7880;50.110;9.372;2023-02-19T16:26:45;7.890608522488037;;;7.937;100.0
15558;BME280;7880;50.110;9.372;2023-02-19T16:31:49;7.8704399243521035;;;7.937;100.0
15558;BME280;7880;50.110;9.372;2023-02-19T16:36:50;7.830102742050076;;;7.937;100.0
15558;BME280;7880;50.110;9.372;2023-02-19T16:47:05;7.784723434224725;;;7.875;100.0
15558;BME280;7880;50.110;9.372;2023-02-19T16:52:08;7.759512717841426;;;7.812;100.0
15558;BME280;7880;50.110;9.372;2023-02-19T16:57:11;7.719175586762139;;;7.812;100.0
15558;BME280;7880;50.110;9.372;2023-02-19T17:02:21;7.709091306902701;;;7.75;100.0
15558;BME280;7880;50.110;9.372;2023-02-19T17:07:23;7.709091306902701;;;7.75;100.0
15558;BME280;7880;50.110;9.372;2023-02-19T17:12:28;7.69396488929633;;;7.75;100.0
15558;BME280;7880;50.110;9.372;2023-02-19T17:17:32;7.648585652193288;;;7.75;100.0
15558;BME280;7880;50.110;9.372;2023-02-19T17:22:35;7.628417109936708;;;7.75;100.0
15558;BME280;7880;50.110;9.372;2023-02-19T17:27:40;7.59816430528299;;;7.687;100.0
15558;BME280;7880;50.110;9.372;2023-02-19T17:32:46;7.567911511106649;;;7.625;100.0
15558;BME280;7880;50.110;9.372;2023-02-19T17:37:50;7.537658727407688;;;7.625;100.0
15558;BME280;7880;50.110;9.372;2023-02-19T17:42:57;7.482195317838341;;;7.625;100.0
15558;BME280;7880;50.110;9.372;2023-02-19T17:48:11;7.482195317838341;;;7.562;100.0
15558;BME280;7880;50.110;9.372;2023-02-19T17:53:01;7.472111065336503;;;7.562;100.0
15558;BME280;7880;50.110;9.372;2023-02-19T17:58:07;7.451942563825287;;;7.562;100.0
15558;BME280;7880;50.110;9.372;2023-02-19T18:03:11;7.431774066970684;;;7.5;100.0
15558;BME280;7880;50.110;9.372;2023-02-19T18:08:13;7.441858314815908;;;7.562;100.0
15558;BME280;7880;50.110;9.372;2023-02-19T18:13:17;7.416647697385633;;;7.5;100.0
15558;BME280;7880;50.110;9.372;2023-02-19T18:18:04;7.416647697385633;;;7.5;100.0
15558;BME280;7880;50.110;9.372;2023-02-19T18:23:07;7.421689820289612;;;7.5;100.0
15558;BME280;7880;50.110;9.372;2023-02-19T18:28:24;7.386394966073567;;;7.5;100.0
15558;BME280;7880;50.110;9.372;2023-02-19T18:33:16;7.381352845206857;;;7.437;100.0
15558;BME280;7880;50.110;9.372;2023-02-19T18:38:19;7.3763107246311845;;;7.5;100.0
15558;BME280;7880;50.110;9.372;2023-02-19T18:43:23;7.386394966073567;;;7.5;100.0
15558;BME280;7880;50.110;9.372;2023-02-19T18:48:27;7.3763107246311845;;;7.437;100.0
15558;BME280;7880;50.110;9.372;2023-02-19T18:53:31;7.381352845206857;;;7.437;100.0
15558;BME280;7880;50.110;9.372;2023-02-19T18:58:35;7.3611843646503985;;;7.437;100.0
15558;BME280;7880;50.110;9.372;2023-02-19T19:03:39;7.330931652546861;;;7.375;100.0
15558;BME280;7880;50.110;9.372;2023-02-19T19:08:43;7.300678950920701;;;7.375;100.0
15558;BME280;7880;50.110;9.372;2023-02-19T19:13:48;7.320847417507321;;;7.375;100.0
15558;BME280;7880;50.110;9.372;2023-02-19T19:18:52;7.305721067130799;;;7.375;100.0
15558;BME280;7880;50.110;9.372;2023-02-19T19:23:56;7.315805300424108;;;7.375;100.0
15558;BME280;7880;50.110;9.372;2023-02-19T19:28:59;7.275468374235788;;;7.312;100.0
15558;BME280;7880;50.110;9.372;2023-02-19T19:34:02;7.23513146667392;;;7.312;100.0
15558;BME280;7880;50.110;9.372;2023-02-19T19:39:06;7.2200051311403515;;;7.312;100.0
15558;BME280;7880;50.110;9.372;2023-02-19T19:44:12;7.174626140255714;;;7.25;100.0
15558;BME280;7880;50.110;9.372;2023-02-19T19:49:17;7.1695840316126125;;;7.25;100.0
15558;BME280;7880;50.110;9.372;2023-02-19T19:54:18;7.174626140255714;;;7.25;100.0
15558;BME280;7880;50.110;9.372;2023-02-19T19:59:22;7.174626140255714;;;7.25;100.0
15558;BME280;7880;50.110;9.372;2023-02-19T20:04:28;7.154457707429538;;;7.25;100.0
15558;BME280;7880;50.110;9.372;2023-02-19T20:09:31;7.124205066921422;;;7.187;100.0
15558;BME280;7880;50.110;9.372;2023-02-19T20:14:35;7.139331385865807;;;7.187;100.0
15558;BME280;7880;50.110;9.372;2023-02-19T20:19:44;7.144373492762679;;;7.187;100.0
15558;BME280;7880;50.110;9.372;2023-02-19T20:24:50;7.124205066921422;;;7.187;100.0
15558;BME280;7880;50.110;9.372;2023-02-19T20:29:56;7.073784022690961;;;7.125;100.0
15558;BME280;7880;50.110;9.372;2023-02-19T20:34:57;7.018320907652378;;;7.062;100.0
15558;BME280;7880;50.110;9.372;2023-02-19T20:40:03;7.018320907652378;;;7.062;100.0
15558;BME280;7880;50.110;9.372;2023-02-19T20:45:06;6.988068314292468;;;7.0;100.0
15558;BME280;7880;50.110;9.372;2023-02-19T20:50:10;6.97294202154153;;;7.0;100.0
15558;BME280;7880;50.110;9.372;2023-02-19T20:55:15;7.008236708701588;;;7.062;100.0
15558;BME280;7880;50.110;9.372;2023-02-19T21:00:19;6.967899924539961;;;7.0;100.0
15558;BME280;7880;50.110;9.372;2023-02-19T21:05:32;6.967899924539961;;;7.0;100.0
15558;BME280;7880;50.110;9.372;2023-02-19T21:10:29;6.967899924539961;;;7.0;100.0
15558;BME280;7880;50.110;9.372;2023-02-19T21:15:35;6.897310597077012;;;7.0;100.0
15558;BME280;7880;50.110;9.372;2023-02-19T21:20:40;6.872100136807421;;;6.937;100.0
15558;BME280;7880;50.110;9.372;2023-02-19T21:25:44;6.796468799654394;;;6.875;100.0
15558;BME280;7880;50.110;9.372;2023-02-19T21:30:47;6.746047944598831;;;6.75;100.0
15558;BME280;7880;50.110;9.372;2023-02-19T21:35:52;6.710753363376716;;;6.75;100.0
15558;BME280;7880;50.110;9.372;2023-02-19T21:41:01;6.7006691999326;;;6.75;100.0
15558;BME280;7880;50.110;9.372;2023-02-19T21:46:00;6.741005860693986;;;6.75;100.0
15558;BME280;7880;50.110;9.372;2023-02-19T21:51:03;6.715795445535332;;;6.75;100.0
15558;BME280;7880;50.110;9.372;2023-02-19T21:56:08;6.690585037652636;;;6.687;100.0
15558;BME280;7880;50.110;9.372;2023-02-19T22:01:23;6.65529047884047;;;6.687;100.0
15558;BME280;7880;50.110;9.372;2023-02-19T22:06:17;6.65529047884047;;;6.687;100.0
15558;BME280;7880;50.110;9.372;2023-02-19T22:11:20;6.65529047884047;;;6.687;100.0
15558;BME280;7880;50.110;9.372;2023-02-19T22:16:24;6.645206321799196;;;6.687;100.0
15558;BME280;7880;50.110;9.372;2023-02-19T22:21:32;6.65529047884047;;;6.687;100.0
15558;BME280;7880;50.110;9.372;2023-02-19T22:26:35;6.614953857660294;;;6.625;100.0
15558;BME280;7880;50.110;9.372;2023-02-19T22:31:38;6.57965932940715;;;6.625;100.0
15558;BME280;7880;50.110;9.372;2023-02-19T22:36:42;6.5847014039987695;;;6.625;100.0
15558;BME280;7880;50.110;9.372;2023-02-19T22:41:45;6.57965932940715;;;6.562;100.0
15558;BME280;7880;50.110;9.372;2023-02-19T22:46:51;6.534280671179294;;;6.562;100.0
15558;BME280;7880;50.110;9.372;2023-02-19T22:51:57;6.4838599674636495;;;6.5;100.0
15558;BME280;7880;50.110;9.372;2023-02-19T22:56:59;6.509070315683493;;;6.562;100.0
15558;BME280;7880;50.110;9.372;2023-02-19T23:02:03;6.468733762024203;;;6.5;100.0
15558;BME280;7880;50.110;9.372;2023-02-19T23:07:07;6.418313096143538;;;6.437;100.0
15558;BME280;7880;50.110;9.372;2023-02-19T23:12:12;6.408228966459864;;;6.437;100.0
15558;BME280;7880;50.110;9.372;2023-02-19T23:17:15;6.393102774117142;;;6.437;100.0
15558;BME280;7880;50.110;9.372;2023-02-19T23:22:16;6.418313096143538;;;6.437;100.0
15558;BME280;7880;50.110;9.372;2023-02-19T23:27:23;6.388060710584978;;;6.437;100.0
15558;BME280;7880;50.110;9.372;2023-02-19T23:32:24;6.383018647343851;;;6.437;100.0
15558;BME280;7880;50.110;9.372;2023-02-19T23:37:28;6.372934521734715;;;6.375;100.0
15558;BME280;7880;50.110;9.372;2023-02-19T23:42:31;6.332598030939698;;;6.375;100.0
15558;BME280;7880;50.110;9.372;2023-02-19T23:47:33;6.287219501059735;;;6.375;100.0
15558;BME280;7880;50.110;9.372;2023-02-19T23:52:36;6.307387733651558;;;6.312;100.0
15558;BME280;7880;50.110;9.372;2023-02-19T23:57:40;6.25192510522902;;;6.312;100.0
